createdAt,value
2022-08-26T00:00:31.183Z,20.72
2022-08-26T00:01:31.175Z,20.71
2022-08-26T00:02:31.197Z,20.68
2022-08-26T00:03:31.135Z,20.66
2022-08-26T00:04:31.115Z,20.64
2022-08-26T00:05:31.128Z,20.63
2022-08-26T00:06:31.093Z,20.61
2022-08-26T00:07:31.106Z,20.58
2022-08-26T00:08:31.066Z,20.56
2022-08-26T00:09:31.055Z,20.56
2022-08-26T00:10:31.043Z,20.51
2022-08-26T00:11:31.037Z,20.53
2022-08-26T00:12:36.164Z,20.53
2022-08-26T00:13:32.004Z,20.51
2022-08-26T00:14:31.609Z,20.51
2022-08-26T00:15:30.978Z,20.50
2022-08-26T00:16:31.022Z,20.48
2022-08-26T00:17:30.965Z,20.44
2022-08-26T00:18:30.956Z,20.44
2022-08-26T00:19:31.934Z,20.44
2022-08-26T00:20:30.909Z,20.44
2022-08-26T00:21:30.901Z,20.40
2022-08-26T00:22:30.886Z,20.38
2022-08-26T00:23:30.867Z,20.35
2022-08-26T00:24:30.854Z,20.34
2022-08-26T00:25:30.846Z,20.35
2022-08-26T00:26:30.841Z,20.34
2022-08-26T00:27:30.825Z,20.33
2022-08-26T00:28:30.808Z,20.31
2022-08-26T00:29:31.939Z,20.30
2022-08-26T00:30:31.775Z,20.27
2022-08-26T00:31:31.210Z,20.26
2022-08-26T00:32:30.762Z,20.26
2022-08-26T00:33:30.736Z,20.25
2022-08-26T00:34:30.718Z,20.26
2022-08-26T00:35:30.710Z,20.25
2022-08-26T00:36:30.687Z,20.25
2022-08-26T00:37:30.694Z,20.25
2022-08-26T00:38:30.665Z,20.23
2022-08-26T00:39:30.655Z,20.22
2022-08-26T00:40:30.718Z,20.19
2022-08-26T00:41:30.645Z,20.15
2022-08-26T00:42:30.624Z,20.12
2022-08-26T00:43:30.610Z,20.08
2022-08-26T00:44:31.590Z,20.07
2022-08-26T00:45:30.622Z,20.04
2022-08-26T00:46:30.556Z,20.04
2022-08-26T00:47:31.035Z,20.01
2022-08-26T00:48:31.777Z,20.00
2022-08-26T00:49:30.518Z,20.00
2022-08-26T00:50:30.518Z,20.01
2022-08-26T00:51:30.504Z,20.04
2022-08-26T00:52:30.487Z,20.04
2022-08-26T00:53:30.476Z,20.02
2022-08-26T00:54:30.450Z,20.04
2022-08-26T00:55:38.024Z,20.05
2022-08-26T00:56:31.443Z,20.07
2022-08-26T00:57:30.428Z,20.07
2022-08-26T00:58:30.403Z,20.07
2022-08-26T00:59:33.036Z,20.05
2022-08-26T01:00:30.368Z,20.04
2022-08-26T01:01:30.387Z,20.02
2022-08-26T01:02:30.375Z,20.00
2022-08-26T01:03:30.329Z,20.01
2022-08-26T01:04:30.333Z,20.00
2022-08-26T01:05:30.309Z,19.97
2022-08-26T01:06:30.297Z,19.97
2022-08-26T01:07:31.175Z,19.95
2022-08-26T01:08:30.272Z,19.95
2022-08-26T01:09:30.258Z,19.95
2022-08-26T01:10:30.257Z,19.95
2022-08-26T01:11:30.258Z,19.94
2022-08-26T01:12:30.212Z,19.92
2022-08-26T01:13:30.216Z,19.89
2022-08-26T01:14:30.190Z,19.86
2022-08-26T01:15:30.179Z,19.86
2022-08-26T01:16:30.258Z,19.85
2022-08-26T01:17:30.149Z,19.85
2022-08-26T01:18:30.132Z,19.85
2022-08-26T01:19:30.120Z,19.82
2022-08-26T01:20:30.110Z,19.82
2022-08-26T01:21:30.177Z,19.80
2022-08-26T01:22:30.079Z,19.80
2022-08-26T01:23:30.067Z,19.80
2022-08-26T01:24:30.051Z,19.78
2022-08-26T01:25:30.051Z,19.76
2022-08-26T01:26:30.055Z,19.76
2022-08-26T01:27:30.018Z,19.75
2022-08-26T01:28:30.016Z,19.75
2022-08-26T01:29:30.003Z,19.78
2022-08-26T01:30:29.994Z,19.75
2022-08-26T01:31:30.082Z,19.78
2022-08-26T01:32:29.951Z,19.76
2022-08-26T01:33:29.946Z,19.76
2022-08-26T01:34:30.924Z,19.72
2022-08-26T01:35:29.912Z,19.71
2022-08-26T01:36:29.911Z,19.71
2022-08-26T01:37:29.892Z,19.70
2022-08-26T01:38:31.640Z,19.67
2022-08-26T01:39:29.862Z,19.65
2022-08-26T01:40:29.866Z,19.65
2022-08-26T01:41:29.839Z,19.64
2022-08-26T01:42:29.811Z,19.61
2022-08-26T01:43:29.814Z,19.61
2022-08-26T01:44:29.802Z,19.60
2022-08-26T01:45:29.804Z,19.60
2022-08-26T01:46:29.759Z,19.57
2022-08-26T01:47:30.052Z,19.57
2022-08-26T01:48:29.751Z,19.57
2022-08-26T01:49:29.723Z,19.57
2022-08-26T01:50:30.228Z,19.58
2022-08-26T01:51:29.701Z,19.60
2022-08-26T01:52:29.697Z,19.58
2022-08-26T01:53:29.670Z,19.57
2022-08-26T01:54:29.657Z,19.57
2022-08-26T01:55:33.167Z,19.53
2022-08-26T01:56:33.074Z,19.52
2022-08-26T01:57:29.624Z,19.50
2022-08-26T01:58:29.600Z,19.49
2022-08-26T01:59:29.601Z,19.50
2022-08-26T02:00:29.595Z,19.47
2022-08-26T02:01:29.560Z,19.46
2022-08-26T02:02:29.558Z,19.45
2022-08-26T02:03:29.577Z,19.46
2022-08-26T02:04:29.578Z,19.43
2022-08-26T02:05:29.531Z,19.43
2022-08-26T02:06:29.495Z,19.43
2022-08-26T02:07:29.488Z,19.42
2022-08-26T02:08:29.498Z,19.42
2022-08-26T02:09:29.460Z,19.40
2022-08-26T02:10:29.459Z,19.40
2022-08-26T02:11:29.443Z,19.39
2022-08-26T02:12:29.412Z,19.39
2022-08-26T02:13:29.413Z,19.40
2022-08-26T02:14:29.385Z,19.40
2022-08-26T02:15:29.407Z,19.40
2022-08-26T02:16:29.400Z,19.40
2022-08-26T02:17:29.360Z,19.39
2022-08-26T02:18:29.345Z,19.35
2022-08-26T02:19:29.334Z,19.35
2022-08-26T02:20:29.325Z,19.34
2022-08-26T02:21:29.298Z,19.32
2022-08-26T02:22:29.310Z,19.32
2022-08-26T02:23:29.274Z,19.31
2022-08-26T02:24:29.267Z,19.31
2022-08-26T02:25:29.252Z,19.31
2022-08-26T02:26:29.232Z,19.28
2022-08-26T02:27:30.326Z,19.28
2022-08-26T02:28:29.210Z,19.27
2022-08-26T02:29:29.191Z,19.27
2022-08-26T02:30:29.190Z,19.25
2022-08-26T02:31:29.210Z,19.25
2022-08-26T02:32:29.165Z,19.25
2022-08-26T02:33:29.131Z,19.24
2022-08-26T02:34:31.314Z,19.24
2022-08-26T02:35:29.126Z,19.24
2022-08-26T02:36:29.101Z,19.20
2022-08-26T02:37:29.095Z,19.17
2022-08-26T02:38:29.074Z,19.20
2022-08-26T02:39:29.066Z,19.20
2022-08-26T02:40:29.086Z,19.20
2022-08-26T02:41:29.031Z,19.17
2022-08-26T02:42:29.023Z,19.15
2022-08-26T02:43:32.886Z,19.15
2022-08-26T02:44:29.013Z,19.13
2022-08-26T02:45:28.984Z,19.12
2022-08-26T02:46:30.094Z,19.09
2022-08-26T02:47:29.239Z,19.07
2022-08-26T02:48:28.941Z,19.07
2022-08-26T02:49:28.941Z,19.10
2022-08-26T02:50:28.918Z,19.10
2022-08-26T02:51:28.894Z,19.09
2022-08-26T02:52:28.887Z,19.09
2022-08-26T02:53:28.871Z,19.06
2022-08-26T02:54:28.873Z,19.07
2022-08-26T02:55:28.846Z,19.06
2022-08-26T02:56:28.849Z,19.07
2022-08-26T02:57:28.842Z,19.06
2022-08-26T02:58:28.812Z,19.02
2022-08-26T02:59:28.812Z,18.99
2022-08-26T03:00:28.880Z,18.96
2022-08-26T03:01:28.793Z,18.96
2022-08-26T03:02:28.770Z,18.96
2022-08-26T03:03:28.741Z,18.96
2022-08-26T03:04:28.743Z,18.94
2022-08-26T03:05:28.712Z,18.96
2022-08-26T03:06:28.703Z,18.96
2022-08-26T03:07:28.684Z,18.96
2022-08-26T03:08:28.675Z,18.99
2022-08-26T03:09:28.671Z,18.99
2022-08-26T03:10:28.652Z,18.99
2022-08-26T03:11:32.970Z,18.94
2022-08-26T03:12:28.623Z,18.94
2022-08-26T03:13:28.603Z,18.91
2022-08-26T03:14:28.604Z,18.90
2022-08-26T03:15:28.584Z,18.87
2022-08-26T03:16:32.347Z,18.86
2022-08-26T03:17:28.555Z,18.84
2022-08-26T03:18:28.546Z,18.83
2022-08-26T03:19:28.533Z,18.84
2022-08-26T03:20:28.521Z,18.86
2022-08-26T03:21:28.503Z,18.84
2022-08-26T03:22:28.495Z,18.83
2022-08-26T03:23:28.475Z,18.82
2022-08-26T03:24:28.485Z,18.79
2022-08-26T03:25:28.445Z,18.76
2022-08-26T03:26:28.448Z,18.76
2022-08-26T03:27:28.422Z,18.76
2022-08-26T03:28:28.419Z,18.72
2022-08-26T03:29:28.416Z,18.69
2022-08-26T03:30:28.384Z,18.68
2022-08-26T03:31:28.392Z,18.66
2022-08-26T03:32:28.355Z,18.65
2022-08-26T03:33:28.345Z,18.64
2022-08-26T03:34:28.349Z,18.62
2022-08-26T03:35:28.314Z,18.62
2022-08-26T03:36:28.304Z,18.65
2022-08-26T03:37:28.284Z,18.64
2022-08-26T03:38:28.274Z,18.62
2022-08-26T03:39:28.275Z,18.62
2022-08-26T03:40:29.014Z,18.60
2022-08-26T03:41:28.246Z,18.62
2022-08-26T03:42:28.224Z,18.65
2022-08-26T03:43:28.206Z,18.62
2022-08-26T03:44:28.210Z,18.62
2022-08-26T03:45:28.186Z,18.62
2022-08-26T03:46:28.232Z,18.62
2022-08-26T03:47:28.156Z,18.62
2022-08-26T03:48:28.149Z,18.64
2022-08-26T03:49:28.918Z,18.62
2022-08-26T03:50:28.123Z,18.64
2022-08-26T03:51:28.107Z,18.60
2022-08-26T03:52:28.101Z,18.59
2022-08-26T03:53:28.080Z,18.60
2022-08-26T03:54:28.075Z,18.59
2022-08-26T03:55:28.043Z,18.59
2022-08-26T03:56:28.045Z,18.57
2022-08-26T03:57:28.034Z,18.57
2022-08-26T03:58:28.034Z,18.56
2022-08-26T03:59:28.006Z,18.56
2022-08-26T04:00:27.984Z,18.56
2022-08-26T04:01:28.031Z,18.53
2022-08-26T04:02:27.990Z,18.56
2022-08-26T04:03:27.976Z,18.54
2022-08-26T04:04:27.952Z,18.53
2022-08-26T04:05:27.917Z,18.51
2022-08-26T04:06:27.908Z,18.53
2022-08-26T04:07:27.890Z,18.50
2022-08-26T04:08:28.038Z,18.50
2022-08-26T04:09:27.873Z,18.50
2022-08-26T04:10:29.316Z,18.50
2022-08-26T04:11:27.833Z,18.47
2022-08-26T04:12:27.824Z,18.47
2022-08-26T04:13:27.805Z,18.47
2022-08-26T04:14:27.815Z,18.49
2022-08-26T04:15:27.787Z,18.47
2022-08-26T04:16:27.818Z,18.47
2022-08-26T04:17:27.754Z,18.46
2022-08-26T04:18:31.382Z,18.49
2022-08-26T04:19:28.754Z,18.49
2022-08-26T04:20:27.730Z,18.50
2022-08-26T04:21:27.704Z,18.53
2022-08-26T04:22:27.694Z,18.54
2022-08-26T04:23:27.680Z,18.53
2022-08-26T04:24:27.899Z,18.51
2022-08-26T04:25:27.647Z,18.51
2022-08-26T04:26:27.643Z,18.51
2022-08-26T04:27:27.626Z,18.51
2022-08-26T04:28:27.613Z,18.51
2022-08-26T04:29:27.606Z,18.50
2022-08-26T04:30:27.601Z,18.51
2022-08-26T04:31:27.600Z,18.53
2022-08-26T04:32:27.555Z,18.51
2022-08-26T04:33:32.271Z,18.51
2022-08-26T04:34:28.951Z,18.54
2022-08-26T04:35:27.524Z,18.56
2022-08-26T04:36:27.518Z,18.57
2022-08-26T04:37:27.494Z,18.57
2022-08-26T04:38:27.494Z,18.60
2022-08-26T04:39:27.787Z,18.64
2022-08-26T04:40:27.625Z,18.66
2022-08-26T04:41:27.437Z,18.69
2022-08-26T04:42:27.425Z,18.71
2022-08-26T04:43:27.427Z,18.74
2022-08-26T04:44:27.396Z,18.78
2022-08-26T04:45:27.388Z,18.82
2022-08-26T04:46:27.443Z,18.83
2022-08-26T04:47:32.124Z,18.86
2022-08-26T04:48:28.365Z,18.87
2022-08-26T04:49:27.511Z,18.90
2022-08-26T04:50:27.323Z,18.93
2022-08-26T04:51:27.349Z,18.97
2022-08-26T04:52:27.307Z,19.02
2022-08-26T04:53:27.285Z,19.06
2022-08-26T04:54:27.269Z,19.12
2022-08-26T04:55:38.680Z,19.16
2022-08-26T04:56:28.235Z,19.23
2022-08-26T04:57:27.216Z,19.27
2022-08-26T04:58:27.235Z,19.30
2022-08-26T04:59:27.195Z,19.32
2022-08-26T05:00:27.191Z,19.32
2022-08-26T05:01:27.198Z,19.35
2022-08-26T05:02:27.158Z,19.40
2022-08-26T05:03:27.184Z,19.43
2022-08-26T05:04:27.163Z,19.49
2022-08-26T05:05:27.118Z,19.57
2022-08-26T05:06:27.106Z,19.61
2022-08-26T05:07:27.095Z,19.68
2022-08-26T05:08:27.087Z,19.72
2022-08-26T05:09:27.064Z,19.76
2022-08-26T05:10:27.055Z,19.80
2022-08-26T05:11:27.058Z,19.85
2022-08-26T05:12:27.035Z,19.89
2022-08-26T05:13:27.026Z,19.97
2022-08-26T05:14:27.009Z,20.00
2022-08-26T05:15:26.987Z,20.05
2022-08-26T05:16:27.012Z,20.12
2022-08-26T05:17:26.957Z,20.19
2022-08-26T05:18:26.968Z,20.34
2022-08-26T05:19:27.994Z,20.56
2022-08-26T05:20:26.925Z,20.76
2022-08-26T05:21:27.064Z,20.96
2022-08-26T05:22:26.899Z,21.19
2022-08-26T05:23:26.897Z,21.40
2022-08-26T05:24:26.870Z,21.66
2022-08-26T05:25:27.457Z,21.90
2022-08-26T05:26:26.857Z,22.14
2022-08-26T05:27:26.828Z,22.35
2022-08-26T05:28:26.832Z,22.56
2022-08-26T05:29:26.796Z,22.81
2022-08-26T05:30:26.788Z,23.03
2022-08-26T05:31:26.851Z,23.25
2022-08-26T05:32:26.865Z,23.50
2022-08-26T05:33:27.902Z,23.74
2022-08-26T05:34:30.095Z,23.96
2022-08-26T05:35:26.727Z,24.19
2022-08-26T05:36:26.969Z,24.42
2022-08-26T05:37:26.696Z,24.63
2022-08-26T05:38:30.330Z,24.84
2022-08-26T05:39:26.658Z,25.07
2022-08-26T05:40:26.732Z,25.20
2022-08-26T05:41:26.653Z,25.31
2022-08-26T05:42:27.641Z,25.34
2022-08-26T05:43:26.629Z,25.27
2022-08-26T05:44:26.609Z,25.20
2022-08-26T05:45:26.580Z,25.08
2022-08-26T05:46:26.598Z,25.01
2022-08-26T05:47:26.566Z,24.92
2022-08-26T05:48:26.557Z,24.82
2022-08-26T05:49:26.668Z,24.83
2022-08-26T05:50:26.521Z,24.86
2022-08-26T05:51:26.511Z,24.84
2022-08-26T05:52:26.498Z,24.79
2022-08-26T05:53:26.489Z,24.77
2022-08-26T05:54:26.481Z,24.74
2022-08-26T05:55:26.450Z,24.67
2022-08-26T05:56:26.456Z,24.63
2022-08-26T05:57:26.431Z,24.59
2022-08-26T05:58:26.747Z,24.56
2022-08-26T05:59:26.401Z,24.56
2022-08-26T06:00:26.390Z,24.60
2022-08-26T06:01:26.485Z,24.75
2022-08-26T06:02:26.428Z,24.92
2022-08-26T06:03:26.365Z,25.05
2022-08-26T06:04:27.849Z,25.17
2022-08-26T06:05:26.322Z,25.31
2022-08-26T06:06:29.152Z,25.44
2022-08-26T06:07:26.300Z,25.53
2022-08-26T06:08:26.303Z,25.76
2022-08-26T06:09:26.260Z,26.08
2022-08-26T06:10:32.654Z,26.41
2022-08-26T06:11:27.240Z,26.72
2022-08-26T06:12:26.244Z,27.02
2022-08-26T06:13:26.242Z,27.30
2022-08-26T06:14:26.209Z,27.61
2022-08-26T06:15:26.191Z,27.93
2022-08-26T06:16:26.245Z,28.23
2022-08-26T06:17:26.163Z,28.54
2022-08-26T06:18:26.161Z,28.80
2022-08-26T06:19:26.130Z,29.10
2022-08-26T06:20:27.124Z,29.36
2022-08-26T06:21:26.118Z,29.57
2022-08-26T06:22:26.101Z,29.71
2022-08-26T06:23:26.091Z,29.85
2022-08-26T06:24:27.157Z,30.10
2022-08-26T06:25:26.063Z,30.37
2022-08-26T06:26:26.051Z,30.66
2022-08-26T06:27:30.593Z,31.00
2022-08-26T06:28:27.048Z,31.28
2022-08-26T06:29:26.010Z,31.49
2022-08-26T06:30:26.050Z,31.68
2022-08-26T06:31:26.023Z,31.90
2022-08-26T06:32:25.974Z,32.10
2022-08-26T06:33:25.973Z,32.34
2022-08-26T06:34:26.728Z,32.56
2022-08-26T06:35:25.932Z,32.81
2022-08-26T06:36:25.923Z,33.05
2022-08-26T06:37:25.903Z,33.20
2022-08-26T06:38:25.914Z,33.33
2022-08-26T06:39:25.887Z,33.41
2022-08-26T06:40:26.017Z,33.57
2022-08-26T06:41:25.931Z,33.74
2022-08-26T06:42:25.869Z,33.86
2022-08-26T06:43:25.849Z,34.03
2022-08-26T06:44:25.832Z,34.19
2022-08-26T06:45:25.805Z,34.33
2022-08-26T06:46:25.926Z,34.50
2022-08-26T06:47:25.791Z,34.63
2022-08-26T06:48:25.791Z,34.78
2022-08-26T06:49:27.454Z,34.99
2022-08-26T06:50:25.735Z,35.13
2022-08-26T06:51:25.728Z,35.27
2022-08-26T06:52:25.717Z,35.43
2022-08-26T06:53:25.717Z,35.55
2022-08-26T06:54:25.699Z,35.65
2022-08-26T06:55:26.809Z,35.69
2022-08-26T06:56:25.660Z,35.71
2022-08-26T06:57:25.677Z,35.76
2022-08-26T06:58:25.647Z,35.84
2022-08-26T06:59:25.641Z,35.85
2022-08-26T07:00:25.637Z,35.83
2022-08-26T07:01:25.639Z,35.91
2022-08-26T07:02:28.441Z,36.08
2022-08-26T07:03:25.604Z,36.33
2022-08-26T07:04:27.793Z,36.52
2022-08-26T07:05:25.571Z,36.74
2022-08-26T07:06:25.530Z,36.94
2022-08-26T07:07:26.075Z,37.15
2022-08-26T07:08:25.524Z,37.38
2022-08-26T07:09:25.505Z,37.50
2022-08-26T07:10:25.490Z,37.62
2022-08-26T07:11:25.497Z,37.80
2022-08-26T07:12:25.462Z,37.91
2022-08-26T07:13:30.482Z,37.99
2022-08-26T07:14:26.501Z,38.04
2022-08-26T07:15:31.032Z,38.07
2022-08-26T07:16:26.424Z,38.15
2022-08-26T07:17:25.403Z,38.25
2022-08-26T07:18:25.408Z,38.28
2022-08-26T07:19:30.133Z,38.40
2022-08-26T07:20:26.354Z,38.40
2022-08-26T07:21:25.375Z,38.38
2022-08-26T07:22:25.381Z,38.37
2022-08-26T07:23:25.351Z,38.44
2022-08-26T07:24:28.417Z,38.53
2022-08-26T07:25:25.350Z,38.70
2022-08-26T07:26:25.286Z,38.92
2022-08-26T07:27:25.309Z,39.01
2022-08-26T07:28:25.284Z,39.12
2022-08-26T07:29:25.245Z,39.14
2022-08-26T07:30:25.246Z,39.25
2022-08-26T07:32:21.050Z,39.35
2022-08-26T07:33:21.042Z,39.50
2022-08-26T07:34:21.034Z,39.65
2022-08-26T07:35:21.053Z,39.76
2022-08-26T07:36:21.004Z,39.85
2022-08-26T07:37:21.015Z,39.91
2022-08-26T07:38:20.989Z,40.02
2022-08-26T07:39:20.983Z,40.04
2022-08-26T07:40:21.066Z,40.16
2022-08-26T07:41:20.976Z,40.25
2022-08-26T07:42:20.937Z,40.18
2022-08-26T07:43:20.938Z,40.16
2022-08-26T07:44:20.914Z,40.03
2022-08-26T07:45:20.913Z,39.92
2022-08-26T07:46:27.041Z,39.78
2022-08-26T07:47:24.860Z,39.68
2022-08-26T07:48:25.766Z,39.68
2022-08-26T07:49:20.971Z,39.56
2022-08-26T07:50:20.897Z,39.38
2022-08-26T07:51:21.827Z,39.41
2022-08-26T07:52:25.537Z,39.53
2022-08-26T07:53:21.829Z,39.59
2022-08-26T07:54:20.788Z,39.50
2022-08-26T07:55:21.799Z,39.51
2022-08-26T07:56:20.788Z,39.47
2022-08-26T07:57:20.769Z,39.44
2022-08-26T07:58:20.749Z,39.39
2022-08-26T07:59:20.748Z,39.28
2022-08-26T08:00:20.803Z,39.06
2022-08-26T08:01:20.800Z,39.00
2022-08-26T08:02:20.701Z,39.06
2022-08-26T08:03:20.706Z,38.98
2022-08-26T08:04:26.169Z,38.84
2022-08-26T08:05:21.851Z,38.77
2022-08-26T08:06:20.653Z,38.67
2022-08-26T08:07:20.646Z,38.60
2022-08-26T08:08:26.533Z,38.68
2022-08-26T08:09:22.422Z,38.77
2022-08-26T08:10:20.864Z,38.68
2022-08-26T08:11:20.600Z,38.44
2022-08-26T08:12:20.590Z,38.15
2022-08-26T08:13:20.581Z,37.80
2022-08-26T08:14:22.241Z,37.53
2022-08-26T08:15:20.634Z,37.38
2022-08-26T08:16:20.651Z,37.31
2022-08-26T08:17:20.530Z,37.21
2022-08-26T08:18:20.770Z,37.25
2022-08-26T08:19:20.517Z,37.35
2022-08-26T08:20:20.482Z,37.43
2022-08-26T08:21:22.010Z,37.54
2022-08-26T08:22:20.462Z,37.77
2022-08-26T08:23:20.505Z,37.96
2022-08-26T08:24:20.463Z,38.14
2022-08-26T08:25:20.433Z,38.34
2022-08-26T08:26:20.424Z,38.50
2022-08-26T08:27:23.666Z,38.65
2022-08-26T08:28:20.406Z,38.77
2022-08-26T08:29:20.387Z,38.89
2022-08-26T08:30:22.648Z,38.93
2022-08-26T08:31:38.529Z,38.81
2022-08-26T08:32:21.365Z,38.68
2022-08-26T08:33:20.345Z,38.65
2022-08-26T08:34:21.451Z,38.74
2022-08-26T08:35:20.325Z,38.79
2022-08-26T08:36:20.533Z,38.86
2022-08-26T08:37:20.305Z,38.89
2022-08-26T08:38:20.308Z,39.01
2022-08-26T08:39:20.291Z,39.16
2022-08-26T08:40:20.431Z,39.32
2022-08-26T08:41:20.257Z,39.32
2022-08-26T08:42:20.248Z,39.17
2022-08-26T08:43:20.231Z,39.13
2022-08-26T08:44:20.283Z,39.02
2022-08-26T08:45:20.209Z,38.92
2022-08-26T08:46:20.275Z,38.84
2022-08-26T08:47:20.745Z,38.90
2022-08-26T08:48:20.163Z,39.06
2022-08-26T08:49:20.168Z,39.17
2022-08-26T08:50:20.139Z,39.27
2022-08-26T08:51:20.147Z,39.20
2022-08-26T08:52:20.148Z,39.02
2022-08-26T08:53:20.122Z,38.81
2022-08-26T08:54:21.983Z,38.68
2022-08-26T08:55:20.092Z,38.67
2022-08-26T08:56:20.068Z,38.71
2022-08-26T08:57:20.090Z,38.63
2022-08-26T08:58:20.039Z,38.58
2022-08-26T08:59:20.047Z,38.58
2022-08-26T09:00:20.029Z,38.50
2022-08-26T09:01:21.074Z,38.38
2022-08-26T09:02:20.073Z,38.24
2022-08-26T09:03:19.990Z,38.09
2022-08-26T09:04:19.972Z,38.07
2022-08-26T09:05:19.988Z,38.09
2022-08-26T09:06:19.982Z,38.21
2022-08-26T09:07:19.972Z,38.30
2022-08-26T09:08:20.096Z,38.33
2022-08-26T09:09:19.924Z,38.22
2022-08-26T09:10:19.904Z,38.18
2022-08-26T09:11:19.905Z,38.25
2022-08-26T09:12:19.896Z,38.38
2022-08-26T09:13:25.293Z,38.33
2022-08-26T09:14:20.852Z,38.25
2022-08-26T09:15:19.853Z,38.10
2022-08-26T09:16:20.295Z,37.88
2022-08-26T09:17:19.863Z,37.84
2022-08-26T09:18:19.805Z,37.84
2022-08-26T09:19:19.846Z,37.88
2022-08-26T09:20:19.802Z,37.88
2022-08-26T09:21:19.794Z,37.80
2022-08-26T09:22:19.831Z,37.66
2022-08-26T09:23:19.759Z,37.72
2022-08-26T09:24:19.735Z,37.85
2022-08-26T09:25:19.736Z,37.96
2022-08-26T09:26:19.717Z,37.96
2022-08-26T09:27:19.746Z,37.99
2022-08-26T09:28:19.694Z,38.04
2022-08-26T09:30:19.667Z,38.14
2022-08-26T09:31:19.730Z,38.16
2022-08-26T09:32:20.289Z,38.18
2022-08-26T09:33:19.656Z,38.15
2022-08-26T09:34:19.649Z,38.06
2022-08-26T09:35:19.614Z,37.90
2022-08-26T09:36:19.597Z,37.85
2022-08-26T09:37:19.587Z,37.82
2022-08-26T09:38:19.587Z,37.84
2022-08-26T09:39:19.555Z,37.84
2022-08-26T09:40:20.354Z,37.90
2022-08-26T09:41:19.538Z,37.93
2022-08-26T09:42:19.555Z,37.93
2022-08-26T09:43:22.771Z,37.91
2022-08-26T09:44:19.500Z,37.90
2022-08-26T09:45:19.501Z,37.91
2022-08-26T09:46:19.561Z,37.88
2022-08-26T09:47:19.478Z,37.88
2022-08-26T09:48:19.480Z,37.90
2022-08-26T09:49:19.440Z,37.90
2022-08-26T09:50:19.441Z,37.87
2022-08-26T09:51:19.452Z,37.84
2022-08-26T09:52:19.423Z,37.75
2022-08-26T09:53:20.968Z,37.68
2022-08-26T09:54:20.720Z,37.59
2022-08-26T09:55:19.379Z,37.42
2022-08-26T09:56:19.381Z,37.30
2022-08-26T09:57:19.361Z,37.20
2022-08-26T09:58:19.362Z,36.99
2022-08-26T09:59:19.313Z,36.89
2022-08-26T10:00:19.321Z,36.77
2022-08-26T10:01:19.593Z,36.69
2022-08-26T10:02:19.296Z,36.55
2022-08-26T10:03:19.269Z,36.44
2022-08-26T10:04:19.324Z,36.40
2022-08-26T10:05:19.276Z,36.43
2022-08-26T10:06:21.141Z,36.43
2022-08-26T10:07:19.264Z,36.43
2022-08-26T10:08:19.263Z,36.38
2022-08-26T10:09:19.214Z,36.38
2022-08-26T10:10:19.197Z,36.41
2022-08-26T10:11:19.185Z,36.43
2022-08-26T10:12:19.172Z,36.48
2022-08-26T10:13:19.147Z,36.52
2022-08-26T10:14:19.150Z,36.53
2022-08-26T10:15:19.159Z,36.53
2022-08-26T10:16:19.181Z,36.56
2022-08-26T10:17:19.118Z,36.50
2022-08-26T10:18:19.101Z,36.44
2022-08-26T10:19:41.674Z,36.31
2022-08-26T10:20:23.590Z,36.27
2022-08-26T10:21:19.048Z,36.08
2022-08-26T10:22:19.062Z,35.87
2022-08-26T10:23:19.032Z,35.66
2022-08-26T10:24:19.020Z,35.46
2022-08-26T10:25:19.015Z,35.42
2022-08-26T10:26:19.020Z,35.49
2022-08-26T10:27:19.002Z,35.59
2022-08-26T10:28:18.972Z,35.66
2022-08-26T10:29:18.950Z,35.71
2022-08-26T10:30:18.970Z,35.77
2022-08-26T10:31:18.947Z,35.85
2022-08-26T10:32:19.002Z,35.91
2022-08-26T10:33:18.907Z,35.78
2022-08-26T10:34:18.904Z,35.39
2022-08-26T10:35:18.903Z,35.27
2022-08-26T10:36:20.391Z,35.31
2022-08-26T10:37:18.889Z,35.34
2022-08-26T10:38:18.864Z,35.44
2022-08-26T10:39:18.835Z,35.52
2022-08-26T10:40:18.909Z,35.71
2022-08-26T10:41:18.804Z,35.93
2022-08-26T10:42:18.835Z,36.12
2022-08-26T10:43:18.839Z,36.28
2022-08-26T10:44:18.778Z,36.43
2022-08-26T10:45:18.764Z,36.56
2022-08-26T10:46:18.808Z,36.62
2022-08-26T10:47:18.756Z,36.50
2022-08-26T10:48:18.728Z,36.44
2022-08-26T10:49:18.728Z,36.40
2022-08-26T10:50:18.941Z,36.44
2022-08-26T10:51:18.705Z,36.44
2022-08-26T10:52:18.702Z,36.52
2022-08-26T10:53:18.683Z,36.59
2022-08-26T10:54:19.676Z,36.56
2022-08-26T10:55:18.650Z,36.44
2022-08-26T10:56:19.387Z,36.23
2022-08-26T10:57:18.626Z,36.13
2022-08-26T10:58:26.317Z,36.06
2022-08-26T10:59:19.593Z,35.96
2022-08-26T11:00:18.586Z,35.87
2022-08-26T11:01:22.823Z,35.78
2022-08-26T11:02:22.794Z,35.78
2022-08-26T11:03:22.381Z,35.78
2022-08-26T11:04:18.621Z,35.66
2022-08-26T11:05:18.533Z,35.56
2022-08-26T11:06:18.542Z,35.39
2022-08-26T11:07:18.490Z,35.18
2022-08-26T11:08:18.491Z,35.13
2022-08-26T11:09:18.476Z,35.24
2022-08-26T11:10:19.481Z,35.42
2022-08-26T11:11:18.453Z,35.59
2022-08-26T11:12:18.454Z,35.71
2022-08-26T11:13:18.428Z,35.85
2022-08-26T11:14:18.414Z,35.96
2022-08-26T11:15:19.402Z,36.11
2022-08-26T11:16:19.457Z,36.13
2022-08-26T11:17:18.377Z,36.22
2022-08-26T11:18:18.371Z,36.44
2022-08-26T11:19:18.372Z,36.59
2022-08-26T11:20:19.352Z,36.69
2022-08-26T11:21:18.358Z,36.75
2022-08-26T11:22:19.320Z,36.84
2022-08-26T11:23:18.313Z,36.90
2022-08-26T11:24:18.340Z,36.84
2022-08-26T11:25:18.468Z,36.82
2022-08-26T11:26:35.562Z,36.75
2022-08-26T11:27:19.257Z,36.67
2022-08-26T11:28:18.257Z,36.52
2022-08-26T11:29:18.227Z,36.46
2022-08-26T11:30:18.503Z,36.44
2022-08-26T11:31:18.252Z,36.41
2022-08-26T11:32:18.209Z,36.44
2022-08-26T11:33:18.207Z,36.44
2022-08-26T11:34:18.186Z,36.40
2022-08-26T11:35:18.156Z,36.38
2022-08-26T11:36:18.156Z,36.08
2022-08-26T11:37:18.150Z,35.99
2022-08-26T11:38:18.136Z,35.98
2022-08-26T11:39:18.115Z,36.11
2022-08-26T11:40:18.139Z,36.25
2022-08-26T11:41:18.116Z,36.35
2022-08-26T11:42:20.155Z,36.30
2022-08-26T11:43:18.080Z,36.15
2022-08-26T11:44:18.108Z,35.93
2022-08-26T11:45:18.135Z,35.78
2022-08-26T11:46:18.085Z,35.65
2022-08-26T11:47:18.018Z,35.47
2022-08-26T11:48:18.009Z,35.36
2022-08-26T11:49:17.999Z,35.17
2022-08-26T11:50:17.992Z,35.00
2022-08-26T11:51:17.959Z,34.93
2022-08-26T11:52:17.973Z,34.84
2022-08-26T11:53:17.961Z,34.73
2022-08-26T11:54:17.954Z,34.60
2022-08-26T11:55:19.211Z,34.43
2022-08-26T11:56:17.956Z,34.21
2022-08-26T11:57:17.900Z,33.92
2022-08-26T11:58:17.953Z,33.66
2022-08-26T11:59:17.909Z,33.35
2022-08-26T12:00:20.946Z,33.05
2022-08-26T12:01:17.867Z,32.77
2022-08-26T12:02:18.167Z,32.61
2022-08-26T12:03:17.870Z,32.46
2022-08-26T12:04:17.909Z,32.22
2022-08-26T12:05:17.790Z,31.91
2022-08-26T12:06:17.845Z,31.75
2022-08-26T12:07:23.733Z,31.64
2022-08-26T12:08:18.790Z,31.54
2022-08-26T12:09:17.755Z,31.42
2022-08-26T12:10:17.758Z,31.30
2022-08-26T12:11:17.724Z,31.22
2022-08-26T12:12:17.712Z,31.18
2022-08-26T12:13:17.694Z,31.05
2022-08-26T12:14:17.735Z,30.93
2022-08-26T12:15:17.677Z,30.81
2022-08-26T12:16:17.720Z,30.72
2022-08-26T12:17:17.669Z,30.57
2022-08-26T12:18:17.672Z,30.42
2022-08-26T12:19:17.644Z,30.29
2022-08-26T12:20:17.617Z,30.11
2022-08-26T12:21:17.599Z,30.00
2022-08-26T12:22:17.596Z,29.76
2022-08-26T12:23:17.588Z,29.52
2022-08-26T12:24:17.571Z,29.32
2022-08-26T12:25:17.572Z,29.15
2022-08-26T12:26:17.572Z,29.00
2022-08-26T12:27:17.520Z,28.87
2022-08-26T12:28:17.603Z,28.72
2022-08-26T12:29:19.998Z,28.60
2022-08-26T12:30:19.371Z,28.45
2022-08-26T12:31:17.607Z,28.38
2022-08-26T12:32:17.459Z,28.38
2022-08-26T12:33:22.546Z,28.25
2022-08-26T12:34:18.660Z,28.14
2022-08-26T12:35:17.420Z,28.08
2022-08-26T12:36:17.417Z,28.05
2022-08-26T12:37:18.982Z,27.98
2022-08-26T12:38:17.396Z,27.95
2022-08-26T12:39:17.386Z,27.95
2022-08-26T12:40:17.435Z,27.93
2022-08-26T12:41:17.348Z,27.91
2022-08-26T12:42:17.339Z,27.96
2022-08-26T12:43:17.332Z,27.98
2022-08-26T12:44:17.318Z,27.90
2022-08-26T12:45:17.314Z,27.77
2022-08-26T12:46:17.280Z,27.76
2022-08-26T12:47:17.267Z,27.74
2022-08-26T12:48:18.270Z,27.72
2022-08-26T12:49:18.239Z,27.76
2022-08-26T12:50:17.234Z,27.77
2022-08-26T12:51:17.223Z,27.83
2022-08-26T12:52:17.213Z,27.80
2022-08-26T12:53:17.212Z,27.77
2022-08-26T12:54:17.186Z,27.74